createdAt,value
2023-03-22T00:00:15.491Z,3.30
2023-03-22T00:01:19.706Z,3.30
2023-03-22T00:02:21.940Z,3.30
2023-03-22T00:03:24.210Z,3.30
2023-03-22T00:04:26.675Z,3.30
2023-03-22T00:05:30.616Z,3.30
2023-03-22T00:06:32.786Z,3.30
2023-03-22T00:07:34.873Z,3.30
2023-03-22T00:08:37.091Z,3.30
2023-03-22T00:09:39.632Z,3.30
2023-03-22T00:10:42.107Z,3.30
2023-03-22T00:11:44.464Z,3.30
2023-03-22T00:12:46.863Z,3.30
2023-03-22T00:13:52.787Z,3.30
2023-03-22T00:14:55.222Z,3.30
2023-03-22T00:15:57.740Z,3.30
2023-03-22T00:16:59.802Z,3.30
2023-03-22T00:18:04.461Z,3.30
2023-03-22T00:19:07.731Z,3.30
2023-03-22T00:20:10.455Z,3.30
2023-03-22T00:21:13.476Z,3.30
2023-03-22T00:22:18.616Z,3.30
2023-03-22T00:23:20.991Z,3.30
2023-03-22T00:24:23.389Z,3.30
2023-03-22T00:25:25.521Z,3.30
2023-03-22T00:26:27.465Z,3.30
2023-03-22T00:27:29.482Z,3.30
2023-03-22T00:28:33.360Z,3.30
2023-03-22T00:29:37.001Z,3.30
2023-03-22T00:30:39.902Z,3.30
2023-03-22T00:31:46.184Z,3.30
2023-03-22T00:32:48.245Z,3.30
2023-03-22T00:33:50.434Z,3.30
2023-03-22T00:34:52.488Z,3.30
2023-03-22T00:35:55.500Z,3.30
2023-03-22T00:36:57.573Z,3.30
2023-03-22T00:38:14.232Z,3.30
2023-03-22T00:39:16.432Z,3.30
2023-03-22T00:40:18.528Z,3.30
2023-03-22T00:41:21.832Z,3.30
2023-03-22T00:42:24.038Z,3.30
2023-03-22T00:43:26.752Z,3.30
2023-03-22T00:44:28.865Z,3.30
2023-03-22T00:45:32.549Z,3.30
2023-03-22T00:46:34.778Z,3.40
2023-03-22T00:47:37.673Z,3.40
2023-03-22T00:48:39.774Z,3.40
2023-03-22T00:49:41.783Z,3.40
2023-03-22T00:50:43.748Z,3.40
2023-03-22T00:51:45.787Z,3.40
2023-03-22T00:52:48.140Z,3.40
2023-03-22T00:53:51.126Z,3.40
2023-03-22T00:54:53.246Z,3.40
2023-03-22T00:55:55.272Z,3.40
2023-03-22T00:56:57.214Z,3.40
2023-03-22T00:57:59.256Z,3.40
2023-03-22T00:59:04.302Z,3.40
2023-03-22T01:00:11.159Z,3.40
2023-03-22T01:01:15.154Z,3.40
2023-03-22T01:02:17.606Z,3.40
2023-03-22T01:03:22.086Z,3.40
2023-03-22T01:04:26.411Z,3.40
2023-03-22T01:05:28.557Z,3.40
2023-03-22T01:06:30.782Z,3.40
2023-03-22T01:07:33.283Z,3.40
2023-03-22T01:08:39.046Z,3.40
2023-03-22T01:09:41.330Z,3.40
2023-03-22T01:10:43.986Z,3.40
2023-03-22T01:11:46.281Z,3.40
2023-03-22T01:12:49.484Z,3.30
2023-03-22T01:13:51.730Z,3.40
2023-03-22T01:14:54.950Z,3.30
2023-03-22T01:15:56.907Z,3.30
2023-03-22T01:17:00.728Z,3.40
2023-03-22T01:18:03.036Z,3.30
2023-03-22T01:19:05.038Z,3.30
2023-03-22T01:20:07.953Z,3.40
2023-03-22T01:21:12.371Z,3.40
2023-03-22T01:22:14.574Z,3.40
2023-03-22T01:23:16.502Z,3.30
2023-03-22T01:24:21.398Z,3.30
2023-03-22T01:25:23.769Z,3.30
2023-03-22T01:26:26.046Z,3.30
2023-03-22T01:27:28.203Z,3.40
2023-03-22T01:28:30.237Z,3.40
2023-03-22T01:29:32.209Z,3.40
2023-03-22T01:30:34.492Z,3.40
2023-03-22T01:31:36.697Z,3.40
2023-03-22T01:32:40.300Z,3.40
2023-03-22T01:33:42.296Z,3.40
2023-03-22T01:34:44.264Z,3.40
2023-03-22T01:35:46.858Z,3.40
2023-03-22T01:36:51.038Z,3.40
2023-03-22T01:37:53.081Z,3.40
2023-03-22T01:38:54.965Z,3.50
2023-03-22T01:39:57.135Z,3.40
2023-03-22T01:40:59.163Z,3.40
2023-03-22T01:42:02.119Z,3.40
2023-03-22T01:43:04.054Z,3.40
2023-03-22T01:44:10.722Z,3.40
2023-03-22T01:45:36.944Z,3.40
2023-03-22T01:46:39.219Z,3.40
2023-03-22T01:47:44.932Z,3.40
2023-03-22T01:48:47.080Z,3.40
2023-03-22T01:49:49.294Z,3.40
2023-03-22T01:50:57.713Z,3.40
2023-03-22T01:52:02.096Z,3.40
2023-03-22T01:53:06.868Z,3.40
2023-03-22T01:54:10.457Z,3.40
2023-03-22T01:55:13.005Z,3.50
2023-03-22T01:56:14.969Z,3.40
2023-03-22T01:57:18.503Z,3.40
2023-03-22T01:58:20.594Z,3.50
2023-03-22T01:59:22.772Z,3.40
2023-03-22T02:00:25.011Z,3.40
2023-03-22T02:01:28.773Z,3.40
2023-03-22T02:02:31.018Z,3.40
2023-03-22T02:03:37.258Z,3.40
2023-03-22T02:04:40.899Z,3.40
2023-03-22T02:05:45.067Z,3.40
2023-03-22T02:06:47.781Z,3.40
2023-03-22T02:07:50.861Z,3.40
2023-03-22T02:08:58.100Z,3.40
2023-03-22T02:10:00.138Z,3.40
2023-03-22T02:11:03.567Z,3.40
2023-03-22T02:12:09.450Z,3.40
2023-03-22T02:13:18.945Z,3.40
2023-03-22T02:14:27.564Z,3.40
2023-03-22T02:15:32.176Z,3.40
2023-03-22T02:16:37.228Z,3.40
2023-03-22T02:17:45.398Z,3.40
2023-03-22T02:18:54.659Z,3.40
2023-03-22T02:20:10.189Z,3.40
2023-03-22T02:21:30.264Z,3.30
2023-03-22T02:22:47.131Z,3.30
2023-03-22T02:24:10.001Z,3.20
2023-03-22T02:25:36.171Z,3.20
2023-03-22T02:26:47.135Z,3.20
2023-03-22T02:28:18.969Z,3.20
2023-03-22T02:29:26.475Z,3.20
2023-03-22T02:30:46.244Z,3.20
2023-03-22T02:33:17.675Z,3.10
2023-03-22T02:34:28.707Z,3.10
2023-03-22T02:35:39.322Z,3.10
2023-03-22T02:37:05.063Z,3.10
2023-03-22T02:38:36.783Z,3.10
2023-03-22T02:39:42.968Z,3.10
2023-03-22T02:40:49.170Z,3.10
2023-03-22T02:41:58.964Z,3.10
2023-03-22T02:43:05.347Z,3.10
2023-03-22T02:44:11.374Z,3.10
2023-03-22T02:45:15.776Z,3.10
2023-03-22T02:46:19.692Z,3.10
2023-03-22T02:47:24.112Z,3.10
2023-03-22T02:48:28.055Z,3.10
2023-03-22T03:41:46.161Z,2.80
2023-03-22T03:42:53.122Z,2.80
2023-03-22T03:43:57.675Z,2.80
2023-03-22T03:45:01.050Z,2.80
2023-03-22T03:46:06.698Z,2.90
2023-03-22T03:47:09.649Z,2.80
2023-03-22T03:48:18.525Z,2.90
2023-03-22T03:49:23.622Z,2.90
2023-03-22T03:50:26.884Z,2.90
2023-03-22T03:51:29.058Z,2.90
2023-03-22T03:52:31.639Z,2.90
2023-03-22T03:54:11.619Z,2.90
2023-03-22T03:55:13.906Z,2.90
2023-03-22T03:56:16.276Z,2.90
2023-03-22T03:57:18.649Z,2.90
2023-03-22T03:58:22.540Z,2.90
2023-03-22T03:59:24.926Z,3.00
2023-03-22T04:00:27.185Z,3.00
2023-03-22T04:01:29.485Z,2.90
2023-03-22T04:02:31.720Z,3.00
2023-03-22T04:03:33.984Z,3.00
2023-03-22T04:04:36.165Z,3.00
2023-03-22T04:05:38.976Z,3.00
2023-03-22T04:06:41.761Z,3.00
2023-03-22T04:07:43.973Z,3.00
2023-03-22T04:08:46.165Z,3.00
2023-03-22T04:09:48.482Z,3.00
2023-03-22T04:10:51.826Z,3.00
2023-03-22T04:11:54.328Z,3.00
2023-03-22T04:12:56.501Z,3.00
2023-03-22T04:14:00.107Z,3.00
2023-03-22T04:15:03.011Z,2.90
2023-03-22T04:16:06.050Z,2.90
2023-03-22T04:17:09.846Z,2.90
2023-03-22T04:18:11.911Z,2.90
2023-03-22T04:19:14.360Z,2.90
2023-03-22T04:20:16.993Z,2.90
2023-03-22T04:21:19.851Z,2.90
2023-03-22T04:22:22.493Z,2.80
2023-03-22T04:23:25.882Z,2.80
2023-03-22T04:24:28.575Z,2.80
2023-03-22T04:25:30.544Z,2.80
2023-03-22T04:26:32.733Z,2.80
2023-03-22T04:27:34.626Z,2.80
2023-03-22T04:28:36.515Z,2.80
2023-03-22T04:29:40.627Z,2.80
2023-03-22T04:30:45.814Z,2.80
2023-03-22T04:31:47.913Z,2.80
2023-03-22T04:32:50.003Z,2.70
2023-03-22T04:33:56.625Z,2.80
2023-03-22T04:34:58.815Z,2.70
2023-03-22T04:36:02.937Z,2.70
2023-03-22T04:37:06.234Z,2.70
2023-03-22T04:38:09.801Z,2.70
2023-03-22T04:39:12.293Z,2.70
2023-03-22T04:40:16.744Z,2.80
2023-03-22T04:41:18.744Z,2.80
2023-03-22T04:42:20.999Z,2.70
2023-03-22T04:43:22.998Z,2.80
2023-03-22T04:44:24.950Z,2.80
2023-03-22T04:45:29.325Z,2.80
2023-03-22T04:46:31.739Z,2.80
2023-03-22T04:47:33.769Z,2.80
2023-03-22T04:48:36.119Z,2.80
2023-03-22T04:49:38.318Z,2.80
2023-03-22T04:50:41.081Z,2.80
2023-03-22T04:51:43.516Z,2.80
2023-03-22T04:52:45.512Z,2.90
2023-03-22T04:53:47.582Z,2.90
2023-03-22T04:54:49.639Z,2.90
2023-03-22T04:55:51.616Z,2.90
2023-03-22T04:56:53.690Z,2.90
2023-03-22T04:57:55.997Z,2.90
2023-03-22T04:58:57.899Z,2.90
2023-03-22T05:00:00.038Z,3.00
2023-03-22T05:01:06.590Z,2.90
2023-03-22T05:02:11.475Z,2.90
2023-03-22T05:03:13.473Z,3.00
2023-03-22T05:04:16.207Z,3.00
2023-03-22T05:05:18.840Z,3.00
2023-03-22T05:06:20.972Z,3.00
2023-03-22T05:07:22.804Z,3.10
2023-03-22T05:08:25.502Z,3.00
2023-03-22T05:09:27.679Z,3.10
2023-03-22T05:10:29.681Z,3.10
2023-03-22T05:11:31.662Z,3.10
2023-03-22T05:12:33.779Z,3.10
2023-03-22T05:13:37.493Z,3.10
2023-03-22T05:14:39.534Z,3.20
2023-03-22T05:15:41.851Z,3.20
2023-03-22T05:16:45.333Z,3.20
2023-03-22T05:17:47.339Z,3.20
2023-03-22T05:18:50.012Z,3.20
2023-03-22T05:19:52.386Z,3.20
2023-03-22T05:20:55.801Z,3.20
2023-03-22T05:22:01.989Z,3.20
2023-03-22T05:23:05.190Z,3.20
2023-03-22T05:24:07.865Z,3.20
2023-03-22T05:25:11.477Z,3.30
2023-03-22T05:26:15.739Z,3.30
2023-03-22T05:27:17.853Z,3.20
2023-03-22T05:28:21.486Z,3.30
2023-03-22T05:29:23.477Z,3.30
2023-03-22T05:30:25.483Z,3.30
2023-03-22T05:31:28.758Z,3.30
2023-03-22T05:32:32.204Z,3.30
2023-03-22T05:33:34.789Z,3.40
2023-03-22T05:34:37.136Z,3.40
2023-03-22T05:35:39.811Z,3.40
2023-03-22T05:36:42.299Z,3.40
2023-03-22T05:37:44.744Z,3.50
2023-03-22T05:38:47.110Z,3.50
2023-03-22T05:39:49.216Z,3.50
2023-03-22T05:40:51.326Z,3.50
2023-03-22T05:41:53.318Z,3.50
2023-03-22T05:42:55.456Z,3.60
2023-03-22T05:43:57.543Z,3.60
2023-03-22T05:44:59.440Z,3.60
2023-03-22T05:46:01.383Z,3.60
2023-03-22T05:47:03.466Z,3.60
2023-03-22T05:48:07.380Z,3.70
2023-03-22T05:49:11.134Z,3.70
2023-03-22T05:50:14.904Z,3.70
2023-03-22T05:51:19.908Z,3.70
2023-03-22T05:52:21.815Z,3.70
2023-03-22T05:53:23.855Z,3.70
2023-03-22T05:54:26.612Z,3.80
2023-03-22T05:55:30.339Z,3.80
2023-03-22T05:56:32.326Z,3.80
2023-03-22T05:57:34.304Z,3.90
2023-03-22T05:58:36.431Z,3.90
2023-03-22T05:59:38.493Z,3.90
2023-03-22T06:00:40.917Z,3.90
2023-03-22T06:01:43.144Z,3.90
2023-03-22T06:02:46.271Z,3.90
2023-03-22T06:03:49.637Z,3.90
2023-03-22T06:04:52.274Z,4.00
2023-03-22T06:05:55.008Z,4.00
2023-03-22T06:06:56.949Z,4.00
2023-03-22T06:07:58.953Z,4.00
2023-03-22T06:09:15.969Z,4.10
2023-03-22T06:10:18.684Z,4.10
2023-03-22T06:11:20.797Z,4.10
2023-03-22T06:12:29.990Z,4.10
2023-03-22T06:13:32.317Z,4.10
2023-03-22T06:14:34.651Z,4.20
2023-03-22T06:15:36.925Z,4.20
2023-03-22T06:16:39.008Z,4.20
2023-03-22T06:17:41.527Z,4.20
2023-03-22T06:18:43.606Z,4.20
2023-03-22T06:19:47.623Z,4.20
2023-03-22T06:20:49.454Z,4.30
2023-03-22T06:21:53.136Z,4.30
2023-03-22T06:23:04.348Z,4.30
2023-03-22T06:24:12.161Z,4.30
2023-03-22T06:25:17.442Z,4.30
2023-03-22T06:26:19.488Z,4.30
2023-03-22T06:27:22.171Z,4.30
2023-03-22T06:28:24.312Z,4.40
2023-03-22T06:29:26.160Z,4.40
2023-03-22T06:30:28.169Z,4.40
2023-03-22T06:31:30.159Z,4.40
2023-03-22T06:32:39.426Z,4.40
2023-03-22T06:33:42.134Z,4.40
2023-03-22T06:34:44.162Z,4.50
2023-03-22T06:35:47.597Z,4.50
2023-03-22T06:36:52.045Z,4.50
2023-03-22T06:37:54.060Z,4.50
2023-03-22T06:38:56.762Z,4.50
2023-03-22T06:40:01.746Z,4.50
2023-03-22T06:41:04.186Z,4.60
2023-03-22T06:42:09.711Z,4.60
2023-03-22T06:43:12.635Z,4.60
2023-03-22T06:44:15.546Z,4.60
2023-03-22T06:45:28.671Z,4.70
2023-03-22T06:46:33.814Z,4.70
2023-03-22T06:47:35.934Z,4.70
2023-03-22T06:48:38.051Z,4.70
2023-03-22T06:49:41.741Z,4.80
2023-03-22T06:50:48.484Z,4.80
2023-03-22T06:51:50.598Z,4.80
2023-03-22T06:52:54.378Z,4.80
2023-03-22T06:54:06.504Z,4.80
2023-03-22T06:55:09.308Z,4.90
2023-03-22T06:56:16.155Z,4.90
2023-03-22T06:57:51.815Z,4.90
2023-03-22T06:58:54.858Z,5.00
2023-03-22T06:59:56.751Z,5.00
2023-03-22T07:00:58.691Z,5.00
2023-03-22T07:02:01.187Z,5.00
2023-03-22T07:03:03.466Z,5.00
2023-03-22T07:04:06.266Z,5.10
2023-03-22T07:05:08.632Z,5.10
2023-03-22T07:06:12.265Z,5.10
2023-03-22T07:07:15.887Z,5.10
2023-03-22T07:08:18.054Z,5.10
2023-03-22T07:09:26.938Z,5.10
2023-03-22T07:10:28.892Z,5.10
2023-03-22T07:11:31.189Z,5.10
2023-03-22T07:12:33.273Z,5.10
2023-03-22T07:13:36.548Z,5.10
2023-03-22T07:14:38.545Z,5.10
2023-03-22T07:15:41.736Z,5.10
2023-03-22T07:16:43.743Z,5.20
2023-03-22T07:17:45.665Z,5.20
2023-03-22T07:18:48.400Z,5.20
2023-03-22T07:19:50.399Z,5.20
2023-03-22T07:20:54.354Z,5.20
2023-03-22T07:22:01.127Z,5.30
2023-03-22T07:23:03.215Z,5.30
2023-03-22T07:24:07.892Z,5.20
2023-03-22T07:25:10.069Z,5.20
2023-03-22T07:26:15.775Z,5.30
2023-03-22T07:27:17.694Z,5.30
2023-03-22T07:28:19.574Z,5.30
2023-03-22T07:29:21.612Z,5.30
2023-03-22T07:30:23.537Z,5.30
2023-03-22T07:31:25.752Z,5.30
2023-03-22T07:32:27.842Z,5.40
2023-03-22T07:33:29.807Z,5.40
2023-03-22T07:34:31.781Z,5.40
2023-03-22T07:35:34.430Z,5.40
2023-03-22T07:36:38.405Z,5.50
2023-03-22T07:37:42.100Z,5.50
2023-03-22T07:38:44.237Z,5.60
2023-03-22T07:39:46.152Z,5.60
2023-03-22T07:40:50.250Z,5.60
2023-03-22T07:41:52.612Z,5.60
2023-03-22T07:42:55.897Z,5.70
2023-03-22T07:44:07.936Z,5.70
2023-03-22T07:45:19.818Z,5.70
2023-03-22T07:46:21.791Z,5.70
2023-03-22T07:47:39.602Z,5.70
2023-03-22T07:48:44.613Z,5.80
2023-03-22T07:49:46.628Z,5.80
2023-03-22T07:50:49.267Z,5.90
2023-03-22T07:51:53.584Z,5.90
2023-03-22T07:52:56.971Z,6.00
2023-03-22T07:53:59.080Z,6.00
2023-03-22T07:55:01.282Z,6.10
2023-03-22T07:56:03.577Z,6.10
2023-03-22T07:57:06.825Z,6.10
2023-03-22T07:58:09.420Z,6.10
2023-03-22T07:59:11.667Z,6.10
2023-03-22T08:00:14.138Z,6.20
2023-03-22T08:01:16.102Z,6.20
2023-03-22T08:02:18.235Z,6.20
2023-03-22T08:03:22.243Z,6.30
2023-03-22T08:04:26.778Z,6.30
2023-03-22T08:05:28.753Z,6.30
2023-03-22T08:06:32.844Z,6.40
2023-03-22T08:07:41.951Z,6.40
2023-03-22T08:08:45.523Z,6.40
2023-03-22T08:09:47.547Z,6.40
2023-03-22T08:10:50.402Z,6.40
2023-03-22T08:11:52.448Z,6.50
2023-03-22T08:12:54.295Z,6.60
2023-03-22T08:13:56.451Z,6.50
2023-03-22T08:14:58.474Z,6.50
2023-03-22T08:16:03.533Z,6.50
2023-03-22T08:17:05.749Z,6.60
2023-03-22T08:18:08.877Z,6.60
2023-03-22T08:19:11.085Z,6.60
2023-03-22T08:20:13.617Z,6.70
2023-03-22T08:21:15.828Z,6.70
2023-03-22T08:22:18.032Z,6.70
2023-03-22T08:23:28.787Z,6.80
2023-03-22T08:24:38.316Z,6.80
2023-03-22T08:25:40.535Z,6.80
2023-03-22T08:26:43.040Z,6.80
2023-03-22T08:27:45.077Z,6.80
2023-03-22T08:28:47.153Z,6.80
2023-03-22T08:29:49.119Z,6.80
2023-03-22T08:30:51.180Z,6.90
2023-03-22T08:31:53.232Z,6.90
2023-03-22T08:32:55.210Z,6.90
2023-03-22T08:33:57.266Z,6.90
2023-03-22T08:34:59.117Z,6.90
2023-03-22T08:36:05.216Z,7.00
2023-03-22T08:37:07.468Z,7.00
2023-03-22T08:38:09.538Z,7.10
2023-03-22T08:39:11.434Z,7.10
2023-03-22T08:40:15.300Z,7.10
2023-03-22T08:41:17.456Z,7.10
2023-03-22T08:42:21.213Z,7.10
2023-03-22T08:43:23.220Z,7.20
2023-03-22T08:44:25.910Z,7.20
2023-03-22T08:45:28.930Z,7.20
2023-03-22T08:46:31.072Z,7.20
2023-03-22T08:47:33.015Z,7.20
2023-03-22T08:48:38.133Z,7.20
2023-03-22T08:49:40.961Z,7.20
2023-03-22T08:50:43.182Z,7.20
2023-03-22T08:51:47.550Z,7.20
2023-03-22T08:52:51.714Z,7.30
2023-03-22T08:53:53.896Z,7.30
2023-03-22T08:54:56.431Z,7.30
2023-03-22T08:56:02.241Z,7.40
2023-03-22T08:57:04.704Z,7.30
2023-03-22T08:58:06.873Z,7.40
2023-03-22T08:59:10.458Z,7.40
2023-03-22T09:00:16.331Z,7.40
2023-03-22T09:01:21.100Z,7.40
2023-03-22T09:02:23.591Z,7.50
2023-03-22T09:03:25.807Z,7.50
2023-03-22T09:04:28.340Z,7.60
2023-03-22T09:05:30.403Z,7.60
2023-03-22T09:06:32.467Z,7.60
2023-03-22T09:07:34.417Z,7.50
2023-03-22T09:08:36.439Z,7.50
2023-03-22T09:09:38.546Z,7.50
2023-03-22T09:10:40.399Z,7.50
2023-03-22T09:11:43.760Z,7.60
2023-03-22T09:12:45.674Z,7.60
2023-03-22T09:13:51.371Z,7.70
2023-03-22T09:14:54.437Z,7.70
2023-03-22T09:15:57.818Z,7.80
2023-03-22T09:16:59.760Z,7.80
2023-03-22T09:18:01.731Z,7.80
2023-03-22T09:19:03.924Z,7.80
2023-03-22T09:20:12.960Z,7.80
2023-03-22T09:21:16.043Z,7.80
2023-03-22T09:22:18.073Z,7.80
2023-03-22T09:23:20.603Z,7.70
2023-03-22T09:24:22.632Z,7.70
2023-03-22T09:25:24.618Z,7.80
2023-03-22T09:26:27.221Z,7.70
2023-03-22T09:27:31.240Z,7.80
2023-03-22T09:28:33.274Z,7.80
2023-03-22T09:29:37.818Z,7.80
2023-03-22T09:30:40.020Z,7.80
2023-03-22T09:31:42.266Z,7.80
2023-03-22T09:32:44.307Z,7.90
2023-03-22T09:33:46.360Z,7.90
2023-03-22T09:34:50.702Z,7.90
2023-03-22T09:35:53.620Z,7.90
2023-03-22T09:36:57.459Z,8.00
2023-03-22T09:38:00.360Z,8.00
2023-03-22T09:39:06.713Z,8.00
2023-03-22T09:40:09.029Z,8.00
2023-03-22T09:41:13.267Z,8.10
2023-03-22T09:42:28.081Z,8.10
2023-03-22T09:43:33.425Z,8.10
2023-03-22T09:44:39.294Z,8.20
2023-03-22T09:45:43.043Z,8.20
2023-03-22T09:46:48.021Z,8.20
2023-03-22T09:47:51.660Z,8.30
2023-03-22T09:48:53.794Z,8.30
2023-03-22T09:50:01.015Z,8.30
2023-03-22T09:51:04.668Z,8.30
2023-03-22T09:52:09.856Z,8.30
2023-03-22T09:53:13.906Z,8.30
2023-03-22T09:54:18.647Z,8.30
2023-03-22T09:55:22.195Z,8.20
2023-03-22T09:56:26.084Z,8.20
2023-03-22T09:57:32.656Z,8.20
2023-03-22T09:58:38.495Z,8.20
2023-03-22T09:59:46.744Z,8.10
2023-03-22T10:00:52.431Z,8.10
2023-03-22T10:01:57.343Z,8.10
2023-03-22T10:03:03.536Z,8.10
2023-03-22T10:04:13.095Z,8.10
2023-03-22T10:05:18.999Z,8.10
2023-03-22T10:06:22.066Z,8.00
2023-03-22T10:07:27.824Z,8.00
2023-03-22T10:08:36.592Z,8.00
2023-03-22T10:09:43.590Z,8.00
2023-03-22T10:10:45.917Z,8.10
2023-03-22T10:11:51.418Z,8.10
2023-03-22T10:12:54.839Z,8.10
2023-03-22T10:14:01.723Z,8.00
2023-03-22T10:15:05.651Z,8.00
2023-03-22T10:16:10.467Z,8.00
2023-03-22T10:17:15.024Z,8.00
2023-03-22T10:18:19.766Z,8.00
2023-03-22T10:19:24.288Z,8.00
2023-03-22T10:20:30.289Z,8.00
2023-03-22T10:21:33.408Z,8.00
2023-03-22T10:22:39.365Z,8.00
2023-03-22T10:23:44.786Z,8.00
2023-03-22T10:24:48.721Z,8.10
2023-03-22T10:25:50.806Z,8.10
2023-03-22T10:26:53.593Z,8.10
2023-03-22T10:27:57.291Z,8.20
2023-03-22T10:29:04.129Z,8.10
2023-03-22T10:30:08.553Z,8.20
2023-03-22T10:31:13.756Z,8.20
2023-03-22T10:32:16.679Z,8.20
2023-03-22T10:33:22.431Z,8.30
2023-03-22T10:34:28.165Z,8.30
2023-03-22T10:35:30.883Z,8.30
2023-03-22T10:36:35.373Z,8.40
2023-03-22T10:37:38.705Z,8.40
2023-03-22T10:38:43.082Z,8.50
2023-03-22T10:39:46.682Z,8.50
2023-03-22T10:40:49.447Z,8.50
2023-03-22T10:41:53.225Z,8.50
2023-03-22T10:42:56.706Z,8.50
2023-03-22T10:44:00.280Z,8.50
2023-03-22T10:45:05.571Z,8.50
2023-03-22T10:46:12.474Z,8.50
2023-03-22T10:47:17.208Z,8.50
2023-03-22T10:48:23.440Z,8.50
2023-03-22T10:49:27.414Z,8.50
2023-03-22T10:50:30.760Z,8.50
2023-03-22T10:51:35.348Z,8.60
2023-03-22T10:52:41.326Z,8.60
2023-03-22T10:53:45.987Z,8.60
2023-03-22T10:54:47.939Z,8.60
2023-03-22T10:55:49.796Z,8.60
2023-03-22T10:56:51.860Z,8.70
2023-03-22T10:58:12.170Z,8.70
2023-03-22T10:59:28.872Z,8.80
2023-03-22T11:00:32.534Z,8.80
2023-03-22T11:01:37.012Z,8.70
2023-03-22T11:02:44.503Z,8.70
2023-03-22T11:03:50.488Z,8.70
2023-03-22T11:04:53.278Z,8.70
2023-03-22T11:05:59.103Z,8.70
2023-03-22T11:07:00.996Z,8.70
2023-03-22T11:08:03.564Z,8.80
2023-03-22T11:09:14.372Z,8.80
2023-03-22T11:10:21.918Z,8.80
2023-03-22T11:11:25.592Z,8.90
2023-03-22T11:12:27.758Z,8.90
2023-03-22T11:13:33.441Z,8.90
2023-03-22T11:14:36.879Z,8.90
2023-03-22T11:15:41.535Z,8.90
2023-03-22T11:16:47.187Z,8.90
2023-03-22T11:17:49.195Z,8.90
2023-03-22T11:18:51.583Z,8.90
2023-03-22T11:19:54.983Z,8.90
2023-03-22T11:20:58.870Z,9.00
2023-03-22T11:22:01.082Z,9.00
2023-03-22T11:23:05.022Z,9.00
2023-03-22T11:24:07.672Z,9.00
2023-03-22T11:25:13.749Z,9.00
2023-03-22T11:27:28.703Z,8.90
2023-03-22T11:28:34.265Z,8.90
2023-03-22T11:29:43.840Z,8.90
2023-03-22T11:30:59.690Z,8.90
2023-03-22T11:32:01.691Z,8.90
2023-03-22T11:33:15.534Z,8.80
2023-03-22T11:34:18.810Z,8.80
2023-03-22T11:35:21.866Z,8.80
2023-03-22T11:36:24.427Z,8.80
2023-03-22T11:37:26.604Z,8.70
2023-03-22T11:38:29.825Z,8.70
2023-03-22T11:39:31.725Z,8.70
2023-03-22T11:40:34.717Z,8.70
2023-03-22T11:41:37.232Z,8.80
2023-03-22T11:42:39.282Z,8.80
2023-03-22T11:43:44.013Z,8.80
2023-03-22T11:44:46.123Z,8.80
2023-03-22T11:45:56.817Z,8.80
2023-03-22T11:47:01.142Z,8.80
2023-03-22T11:48:08.144Z,8.80
2023-03-22T11:49:14.714Z,8.80
2023-03-22T11:50:23.936Z,8.80
2023-03-22T11:51:28.119Z,8.80
2023-03-22T11:52:29.981Z,8.80
2023-03-22T11:53:32.910Z,8.80
2023-03-22T11:54:35.649Z,8.90
2023-03-22T11:55:37.970Z,8.90
2023-03-22T11:56:41.550Z,8.90
2023-03-22T11:57:43.451Z,8.90
2023-03-22T11:58:53.449Z,8.90
2023-03-22T11:59:58.198Z,8.90
2023-03-22T12:01:01.442Z,8.90
2023-03-22T12:02:12.593Z,8.90
2023-03-22T12:03:16.407Z,8.90
2023-03-22T12:04:22.694Z,8.90
2023-03-22T12:05:27.278Z,8.90
2023-03-22T12:06:30.528Z,8.80
2023-03-22T12:07:34.404Z,8.90
2023-03-22T12:08:42.802Z,8.90
2023-03-22T12:09:48.607Z,8.90
2023-03-22T12:10:53.013Z,8.90
2023-03-22T12:11:56.097Z,8.90
2023-03-22T12:13:00.495Z,8.90
2023-03-22T12:14:05.200Z,8.90
2023-03-22T12:15:12.756Z,8.90
2023-03-22T12:16:16.012Z,8.90
2023-03-22T12:17:24.396Z,8.90
2023-03-22T12:18:28.788Z,8.90
2023-03-22T12:19:40.782Z,8.90
2023-03-22T12:20:45.206Z,8.90
2023-03-22T12:21:48.887Z,8.90
2023-03-22T12:22:53.319Z,8.90
2023-03-22T12:23:59.121Z,8.80
2023-03-22T12:25:03.035Z,8.80
2023-03-22T12:26:06.915Z,8.80
2023-03-22T12:27:13.502Z,8.80
2023-03-22T12:28:17.478Z,8.80
2023-03-22T12:29:19.772Z,8.80
2023-03-22T12:30:23.538Z,8.80
2023-03-22T12:31:27.886Z,8.80
2023-03-22T12:32:34.102Z,8.80
2023-03-22T12:33:38.440Z,8.80
2023-03-22T12:34:42.751Z,8.80
2023-03-22T12:35:45.616Z,8.80
2023-03-22T12:36:49.346Z,8.80
2023-03-22T12:37:52.282Z,8.80
2023-03-22T12:38:56.649Z,8.70
2023-03-22T12:40:00.101Z,8.80
2023-03-22T12:41:02.923Z,8.70
2023-03-22T12:42:11.164Z,8.70
2023-03-22T12:43:15.805Z,8.70
2023-03-22T12:44:18.902Z,8.70
2023-03-22T12:45:22.580Z,8.70
2023-03-22T12:46:26.413Z,8.70
2023-03-22T12:47:30.183Z,8.70
2023-03-22T12:48:38.804Z,8.70
2023-03-22T12:49:43.237Z,8.70
2023-03-22T12:50:48.313Z,8.70
2023-03-22T12:51:51.991Z,8.70
2023-03-22T12:52:57.027Z,8.80
2023-03-22T12:54:00.435Z,8.70
2023-03-22T12:55:02.946Z,8.70
2023-03-22T12:56:05.382Z,8.70
2023-03-22T12:57:08.293Z,8.70
2023-03-22T12:58:10.864Z,8.70
2023-03-22T12:59:14.810Z,8.60
2023-03-22T13:00:17.817Z,8.60
2023-03-22T13:01:22.754Z,8.60
2023-03-22T13:02:27.735Z,8.60
2023-03-22T13:03:36.604Z,8.60
2023-03-22T13:04:53.179Z,8.60
2023-03-22T13:06:03.359Z,8.60
2023-03-22T13:07:09.679Z,8.60
2023-03-22T13:08:12.000Z,8.50
2023-03-22T13:09:17.814Z,8.50
2023-03-22T13:10:47.759Z,8.50
2023-03-22T13:12:09.700Z,8.50
2023-03-22T13:13:14.872Z,8.40
2023-03-22T13:14:37.481Z,8.40
2023-03-22T13:15:42.617Z,8.40
2023-03-22T13:16:49.151Z,8.30
2023-03-22T13:17:51.108Z,8.30
2023-03-22T13:19:03.484Z,8.30
2023-03-22T13:20:27.136Z,8.30
2023-03-22T13:21:30.181Z,8.30
2023-03-22T13:22:55.527Z,8.40
2023-03-22T13:24:00.826Z,8.40
2023-03-22T13:25:08.616Z,8.50
2023-03-22T13:26:14.828Z,8.50
2023-03-22T13:27:16.794Z,8.50
2023-03-22T13:28:24.885Z,8.50
2023-03-22T13:29:36.548Z,8.50
2023-03-22T13:30:49.153Z,8.50
2023-03-22T13:32:21.241Z,8.60
2023-03-22T13:33:26.312Z,8.60
2023-03-22T13:34:33.310Z,8.60
2023-03-22T13:35:41.474Z,8.60
2023-03-22T13:36:49.402Z,8.60
2023-03-22T13:37:51.682Z,8.60
2023-03-22T13:38:55.127Z,8.70
2023-03-22T13:40:02.450Z,8.70
2023-03-22T13:41:06.163Z,8.70
2023-03-22T13:42:09.891Z,8.70
2023-03-22T13:43:13.475Z,8.70
2023-03-22T13:44:26.485Z,8.70
2023-03-22T13:45:32.002Z,8.70
2023-03-22T13:46:44.815Z,8.70
2023-03-22T13:47:47.278Z,8.70
2023-03-22T13:48:52.805Z,8.80
2023-03-22T13:49:58.395Z,8.70
2023-03-22T13:51:08.174Z,8.70
2023-03-22T13:52:23.454Z,8.80
2023-03-22T13:53:33.879Z,8.80
2023-03-22T13:54:37.901Z,8.80
2023-03-22T13:55:43.003Z,8.80
2023-03-22T13:56:53.048Z,8.80
2023-03-22T13:57:59.023Z,8.80
2023-03-22T13:59:04.039Z,8.80
2023-03-22T14:00:15.113Z,8.80
2023-03-22T14:01:19.956Z,8.80
2023-03-22T14:02:35.986Z,8.80
2023-03-22T14:03:40.919Z,8.80
2023-03-22T14:04:44.272Z,8.90
2023-03-22T14:05:47.416Z,8.90
2023-03-22T14:06:52.651Z,8.90
2023-03-22T14:07:56.367Z,8.90
2023-03-22T14:09:02.067Z,9.00
2023-03-22T14:10:06.743Z,9.00
2023-03-22T14:11:20.248Z,9.00
2023-03-22T14:12:24.958Z,9.00
2023-03-22T14:13:33.548Z,9.00
2023-03-22T14:14:40.149Z,9.00
2023-03-22T14:15:45.346Z,9.00
2023-03-22T14:16:52.298Z,9.00
2023-03-22T14:17:56.220Z,9.00
2023-03-22T14:18:58.365Z,9.00
2023-03-22T14:20:00.785Z,9.10
2023-03-22T14:21:05.635Z,9.10
